Time;durP1;ratioP1;P1;durP2;ratioP2;P2;SDS_P1;SDS_P2;PMS_P1;PMS_P2;Temp;Humidity;BMP_temperature;BMP_pressure;BME280_temperature;BME280_humidity;BME280_pressure;Samples;Min_cycle;Max_cycle;Signal;HPM_P1;HPM_P2
2022/08/24 00:02:07;;;;;;;;;;;20.60;55.90;;;;;;5150246;27;19923;-45
2022/08/24 00:04:33;;;;;;;;;;;21.50;54.30;;;;;;5144946;27;19923;-46
2022/08/24 00:06:59;;;;;;;;;;;21.00;52.90;;;;;;5150593;27;19923;-45
2022/08/24 00:09:25;;;;;;;;;;;20.40;52.80;;;;;;5141640;27;19947;-46
2022/08/24 00:11:51;;;;;;;;;;;20.20;51.50;;;;;;5144685;27;19927;-48
2022/08/24 00:14:17;;;;;;;;;;;19.90;51.40;;;;;;5145311;27;19961;-46
2022/08/24 00:16:43;;;;;;;;;;;19.80;50.80;;;;;;5144184;27;20353;-47
2022/08/24 00:19:10;;;;;;;;;;;19.90;53.80;;;;;;5144785;27;20026;-47
2022/08/24 00:21:35;;;;;;;;;;;20.80;56.00;;;;;;5150045;27;19927;-49
2022/08/24 00:24:01;;;;;;;;;;;21.70;54.00;;;;;;5144829;27;19929;-45
2022/08/24 00:26:27;;;;;;;;;;;20.90;53.00;;;;;;5150206;27;20294;-45
2022/08/24 00:28:53;;;;;;;;;;;20.50;52.10;;;;;;5144606;27;20355;-46
2022/08/24 00:31:19;;;;;;;;;;;20.10;51.40;;;;;;5142075;27;19930;-48
2022/08/24 00:33:44;;;;;;;;;;;19.80;51.30;;;;;;5147794;27;19938;-46
2022/08/24 00:36:10;;;;;;;;;;;19.70;50.80;;;;;;5144090;27;20274;-46
2022/08/24 00:38:36;;;;;;;;;;;20.20;55.70;;;;;;5144276;27;19983;-46
2022/08/24 00:41:02;;;;;;;;;;;21.10;55.60;;;;;;5149843;27;20017;-45
2022/08/24 00:43:28;;;;;;;;;;;21.80;53.10;;;;;;5144264;27;20283;-45
2022/08/24 00:45:56;;;;;;;;;;;20.70;53.30;;;;;;5149599;27;19934;-46
2022/08/24 00:48:25;;;;;;;;;;;20.40;52.30;;;;;;5144501;27;20394;-46
2022/08/24 00:50:56;;;;;;;;;;;19.90;51.90;;;;;;5139995;27;19938;-46
2022/08/24 00:53:24;;;;;;;;;;;19.70;51.30;;;;;;5148697;27;19924;-46
2022/08/24 00:55:51;;;;;;;;;;;19.80;53.50;;;;;;5143802;27;19922;-46
2022/08/24 00:58:19;;;;;;;;;;;20.60;56.30;;;;;;5141238;27;20455;-46
2022/08/24 01:00:46;;;;;;;;;;;21.50;54.70;;;;;;5146575;27;19934;-46
2022/08/24 01:03:12;;;;;;;;;;;21.30;53.00;;;;;;5143815;27;19963;-46
2022/08/24 01:05:38;;;;;;;;;;;20.60;52.30;;;;;;5143841;27;20232;-45
2022/08/24 01:08:05;;;;;;;;;;;20.00;52.10;;;;;;5146486;27;20427;-50
2022/08/24 01:10:33;;;;;;;;;;;19.80;51.50;;;;;;5122904;27;19926;-48
2022/08/24 01:13:01;;;;;;;;;;;19.60;51.10;;;;;;5148692;27;20022;-45
2022/08/24 01:15:31;;;;;;;;;;;20.00;54.50;;;;;;5143707;27;20014;-46
2022/08/24 01:20:42;;;;;;;;;;;21.80;54.10;;;;;;5149207;27;20001;-45
2022/08/24 01:23:31;;;;;;;;;;;20.90;53.10;;;;;;5141532;27;19923;-45
2022/08/24 01:25:57;;;;;;;;;;;20.30;52.40;;;;;;5139380;27;19923;-49
2022/08/24 01:28:22;;;;;;;;;;;20.10;51.50;;;;;;5127279;27;20415;-46
2022/08/24 01:30:48;;;;;;;;;;;19.70;51.80;;;;;;5142912;27;19946;-47
2022/08/24 01:33:21;;;;;;;;;;;19.70;51.50;;;;;;5143147;27;19927;-49
2022/08/24 01:35:47;;;;;;;;;;;20.30;55.90;;;;;;5149003;27;19967;-46
2022/08/24 01:38:13;;;;;;;;;;;21.40;54.90;;;;;;5143171;27;19923;-45
2022/08/24 01:40:41;;;;;;;;;;;21.50;53.30;;;;;;5141923;27;19927;-46
2022/08/24 01:43:07;;;;;;;;;;;20.70;52.50;;;;;;5146229;27;20073;-45
2022/08/24 01:45:36;;;;;;;;;;;20.30;51.80;;;;;;5138186;27;20363;-49
2022/08/24 01:48:02;;;;;;;;;;;19.80;51.60;;;;;;5143180;27;20389;-56
2022/08/24 01:50:28;;;;;;;;;;;19.80;51.00;;;;;;5128399;27;19935;-46
2022/08/24 01:52:54;;;;;;;;;;;20.00;54.20;;;;;;5142529;27;20292;-48
2022/08/24 01:55:20;;;;;;;;;;;20.80;55.90;;;;;;5147174;27;20440;-46
2022/08/24 01:57:45;;;;;;;;;;;21.70;54.00;;;;;;5142722;27;19927;-47
2022/08/24 02:00:13;;;;;;;;;;;20.90;53.00;;;;;;5142766;27;20325;-47
2022/08/24 02:02:40;;;;;;;;;;;20.30;52.60;;;;;;5145297;27;19923;-53
2022/08/24 02:05:06;;;;;;;;;;;20.10;51.70;;;;;;5138269;27;20019;-46
2022/08/24 02:07:31;;;;;;;;;;;19.80;51.30;;;;;;5141928;27;19948;-46
2022/08/24 02:09:57;;;;;;;;;;;19.80;51.60;;;;;;5148051;27;19931;-48
2022/08/24 02:12:23;;;;;;;;;;;20.40;56.10;;;;;;5142632;27;19936;-47
2022/08/24 02:14:49;;;;;;;;;;;21.30;55.00;;;;;;5148086;27;19923;-46
2022/08/24 02:17:15;;;;;;;;;;;21.40;53.10;;;;;;5142542;27;20025;-44
2022/08/24 02:19:40;;;;;;;;;;;20.60;52.70;;;;;;5141083;27;20478;-45
2022/08/24 02:22:06;;;;;;;;;;;20.30;51.70;;;;;;5141025;27;19931;-46
2022/08/24 02:24:32;;;;;;;;;;;19.70;51.70;;;;;;5140850;27;19923;-46
2022/08/24 02:26:58;;;;;;;;;;;19.70;51.50;;;;;;5141884;27;19948;-47
2022/08/24 02:29:24;;;;;;;;;;;19.80;52.90;;;;;;5147639;27;19985;-47
2022/08/24 02:31:50;;;;;;;;;;;20.60;55.90;;;;;;5141995;27;19923;-45
2022/08/24 02:34:16;;;;;;;;;;;21.40;54.90;;;;;;5147750;27;19946;-45
2022/08/24 02:36:41;;;;;;;;;;;21.30;53.20;;;;;;5142104;27;19982;-45
2022/08/24 02:39:07;;;;;;;;;;;20.40;53.20;;;;;;5141588;27;19930;-46
2022/08/24 02:41:33;;;;;;;;;;;20.10;52.30;;;;;;5143546;27;19933;-47
2022/08/24 02:43:59;;;;;;;;;;;19.80;51.70;;;;;;5141307;27;19923;-47
2022/08/24 02:46:25;;;;;;;;;;;19.50;52.30;;;;;;5141024;27;20409;-46
2022/08/24 02:48:51;;;;;;;;;;;20.30;56.10;;;;;;5147616;27;20026;-49
2022/08/24 02:51:27;;;;;;;;;;;21.30;55.60;;;;;;5142068;27;19935;-46
2022/08/24 02:53:53;;;;;;;;;;;21.50;53.50;;;;;;5142597;27;20378;-54
2022/08/24 02:56:20;;;;;;;;;;;20.60;52.90;;;;;;5147249;27;19935;-47
2022/08/24 02:58:46;;;;;;;;;;;20.00;52.50;;;;;;5138970;27;19923;-51
2022/08/24 03:01:12;;;;;;;;;;;19.80;52.00;;;;;;5145622;27;20013;-45
2022/08/24 03:03:38;;;;;;;;;;;19.70;51.10;;;;;;5140409;27;20389;-46
2022/08/24 03:06:04;;;;;;;;;;;20.00;55.50;;;;;;5141836;27;19923;-45
2022/08/24 03:08:30;;;;;;;;;;;20.80;56.30;;;;;;5147352;27;19927;-47
2022/08/24 03:10:55;;;;;;;;;;;21.70;54.20;;;;;;5141961;27;19931;-46
2022/08/24 03:13:21;;;;;;;;;;;20.80;53.30;;;;;;5141945;27;20207;-46
2022/08/24 03:15:47;;;;;;;;;;;20.30;52.30;;;;;;5146606;27;19923;-47
2022/08/24 03:18:13;;;;;;;;;;;19.90;51.80;;;;;;5137881;27;20018;-46
2022/08/24 03:20:39;;;;;;;;;;;19.80;51.10;;;;;;5145217;27;20397;-46
2022/08/24 03:23:04;;;;;;;;;;;19.80;51.80;;;;;;5141223;27;19972;-46
2022/08/24 03:25:30;;;;;;;;;;;20.40;56.30;;;;;;5141613;27;19924;-46
2022/08/24 03:27:56;;;;;;;;;;;21.30;55.30;;;;;;5147253;27;19927;-44
2022/08/24 03:30:22;;;;;;;;;;;21.30;53.70;;;;;;5141651;27;19927;-45
2022/08/24 03:32:48;;;;;;;;;;;20.50;52.90;;;;;;5141545;27;19996;-49
2022/08/24 03:35:14;;;;;;;;;;;20.00;52.00;;;;;;5144273;27;20362;-47
2022/08/24 03:37:40;;;;;;;;;;;19.60;52.10;;;;;;5139274;27;19927;-47
2022/08/24 03:40:06;;;;;;;;;;;19.80;50.70;;;;;;5146612;27;19930;-50
2022/08/24 03:42:32;;;;;;;;;;;20.30;56.10;;;;;;5141416;27;19923;-47
2022/08/24 03:44:58;;;;;;;;;;;21.20;55.50;;;;;;5141576;27;19923;-44
2022/08/24 03:47:23;;;;;;;;;;;21.50;53.40;;;;;;5147040;27;20430;-49
2022/08/24 03:49:49;;;;;;;;;;;20.60;53.10;;;;;;5143912;27;20364;-46
2022/08/24 03:52:15;;;;;;;;;;;20.00;52.40;;;;;;5145390;27;20026;-46
2022/08/24 03:54:41;;;;;;;;;;;19.80;51.80;;;;;;5146616;27;20255;-46
2022/08/24 03:57:06;;;;;;;;;;;19.80;51.20;;;;;;5144437;27;19923;-46
2022/08/24 03:59:32;;;;;;;;;;;19.90;53.10;;;;;;5149305;27;19923;-52
2022/08/24 04:01:58;;;;;;;;;;;20.60;56.30;;;;;;5146401;27;20430;-44
2022/08/24 04:04:24;;;;;;;;;;;21.50;54.70;;;;;;5145328;27;20312;-45
2022/08/24 04:06:50;;;;;;;;;;;21.20;53.10;;;;;;5150652;27;19930;-47
2022/08/24 04:09:15;;;;;;;;;;;20.50;52.60;;;;;;5145013;27;19923;-46
2022/08/24 04:11:44;;;;;;;;;;;20.00;52.10;;;;;;5142416;27;20393;-47
2022/08/24 04:14:09;;;;;;;;;;;19.80;51.10;;;;;;5147847;27;19923;-46
2022/08/24 04:16:35;;;;;;;;;;;19.70;50.70;;;;;;5144325;27;19962;-47
2022/08/24 04:19:01;;;;;;;;;;;20.00;54.60;;;;;;5145842;27;19927;-51
2022/08/24 04:21:28;;;;;;;;;;;20.80;56.10;;;;;;5149448;27;20366;-45
2022/08/24 04:23:54;;;;;;;;;;;21.60;54.40;;;;;;5144643;27;19923;-46
2022/08/24 04:26:21;;;;;;;;;;;20.90;53.40;;;;;;5150066;27;19950;-45
2022/08/24 04:28:47;;;;;;;;;;;20.30;52.40;;;;;;5144546;27;20049;-46
2022/08/24 04:31:14;;;;;;;;;;;19.90;51.80;;;;;;5140256;27;20345;-51
2022/08/24 04:33:40;;;;;;;;;;;19.80;51.00;;;;;;5149336;27;20366;-48
2022/08/24 04:36:07;;;;;;;;;;;19.80;53.20;;;;;;5142896;27;19952;-46
2022/08/24 04:38:33;;;;;;;;;;;20.50;56.40;;;;;;5144455;27;20280;-46
2022/08/24 04:40:59;;;;;;;;;;;21.40;55.10;;;;;;5149785;27;20402;-48
2022/08/24 04:43:25;;;;;;;;;;;21.30;53.20;;;;;;5144046;27;19975;-46
2022/08/24 04:45:51;;;;;;;;;;;20.50;52.70;;;;;;5149716;27;19928;-46
2022/08/24 04:48:17;;;;;;;;;;;20.00;51.90;;;;;;5141662;27;19980;-48
2022/08/24 04:50:43;;;;;;;;;;;19.80;51.50;;;;;;5122222;27;19929;-47
2022/08/24 04:53:10;;;;;;;;;;;19.70;51.10;;;;;;5148855;27;20029;-46
2022/08/24 04:55:45;;;;;;;;;;;19.90;55.10;;;;;;5143845;27;20138;-47
2022/08/24 04:58:12;;;;;;;;;;;20.80;56.30;;;;;;5143873;27;20058;-48
2022/08/24 05:00:37;;;;;;;;;;;21.70;53.70;;;;;;5149399;27;19994;-46
2022/08/24 05:03:03;;;;;;;;;;;20.70;53.40;;;;;;5143727;27;19927;-46
2022/08/24 05:05:29;;;;;;;;;;;20.20;52.50;;;;;;5144467;27;19923;-52
2022/08/24 05:07:55;;;;;;;;;;;19.80;52.20;;;;;;5144546;27;19927;-50
2022/08/24 05:10:22;;;;;;;;;;;19.70;51.00;;;;;;5142870;27;19923;-46
2022/08/24 05:12:48;;;;;;;;;;;20.00;55.60;;;;;;5148876;27;20390;-50
2022/08/24 05:15:15;;;;;;;;;;;20.90;55.90;;;;;;5143590;27;19927;-47
2022/08/24 05:17:41;;;;;;;;;;;21.60;53.70;;;;;;5143759;27;19923;-47
2022/08/24 05:20:08;;;;;;;;;;;20.80;53.30;;;;;;5148855;27;19923;-45
2022/08/24 05:22:34;;;;;;;;;;;20.20;52.30;;;;;;5143174;27;19931;-47
2022/08/24 05:25:00;;;;;;;;;;;19.90;51.90;;;;;;5141245;27;19953;-47
2022/08/24 05:27:25;;;;;;;;;;;19.70;51.50;;;;;;5146072;27;19976;-47
2022/08/24 05:29:52;;;;;;;;;;;19.90;54.10;;;;;;5142597;27;20420;-49
2022/08/24 05:32:18;;;;;;;;;;;20.80;56.40;;;;;;5148622;27;19931;-46
2022/08/24 05:34:44;;;;;;;;;;;21.60;54.70;;;;;;5143387;27;19927;-48
2022/08/24 05:37:10;;;;;;;;;;;21.20;53.40;;;;;;5143412;27;19923;-45
2022/08/24 05:39:35;;;;;;;;;;;20.60;52.80;;;;;;5148766;27;19930;-45
2022/08/24 05:42:01;;;;;;;;;;;20.30;51.90;;;;;;5143310;27;19934;-45
2022/08/24 05:44:29;;;;;;;;;;;20.00;51.50;;;;;;5139212;27;19935;-48
2022/08/24 05:46:57;;;;;;;;;;;19.70;51.40;;;;;;5144355;27;19927;-47
2022/08/24 05:49:25;;;;;;;;;;;19.70;52.30;;;;;;5142696;27;19986;-49
2022/08/24 05:51:51;;;;;;;;;;;20.50;56.10;;;;;;5145781;27;19942;-56
2022/08/24 05:54:17;;;;;;;;;;;21.30;55.60;;;;;;5146256;27;19929;-46
2022/08/24 05:56:43;;;;;;;;;;;21.40;53.50;;;;;;5143113;27;19923;-45
2022/08/24 05:59:09;;;;;;;;;;;20.70;53.20;;;;;;5148389;27;20382;-47
2022/08/24 06:01:35;;;;;;;;;;;20.20;52.60;;;;;;5140661;27;21019;-48
2022/08/24 06:04:01;;;;;;;;;;;19.80;52.10;;;;;;5139841;27;19965;-47
2022/08/24 06:06:27;;;;;;;;;;;19.60;51.70;;;;;;5147667;27;19934;-46
2022/08/24 06:08:54;;;;;;;;;;;19.90;53.10;;;;;;5142525;27;19977;-45
2022/08/24 06:11:23;;;;;;;;;;;20.70;56.30;;;;;;5142155;27;19967;-50
2022/08/24 06:13:53;;;;;;;;;;;21.40;55.40;;;;;;5148134;27;20009;-44
2022/08/24 06:16:18;;;;;;;;;;;21.20;53.70;;;;;;5142621;27;19923;-47
2022/08/24 06:18:44;;;;;;;;;;;20.40;53.20;;;;;;5148124;27;20472;-45
2022/08/24 06:21:12;;;;;;;;;;;20.20;52.50;;;;;;5138477;27;19930;-47
2022/08/24 06:23:38;;;;;;;;;;;20.00;51.80;;;;;;5141419;27;19948;-47
2022/08/24 06:28:48;;;;;;;;;;;19.70;52.30;;;;;;5142381;27;19927;-45
2022/08/24 06:31:14;;;;;;;;;;;20.60;56.50;;;;;;5142381;27;19970;-46
2022/08/24 06:33:40;;;;;;;;;;;21.30;55.90;;;;;;5147810;27;19923;-47
2022/08/24 06:36:06;;;;;;;;;;;21.30;53.70;;;;;;5142290;27;19930;-46
2022/08/24 06:38:32;;;;;;;;;;;20.60;53.30;;;;;;5139885;27;19998;-46
2022/08/24 06:40:58;;;;;;;;;;;20.30;52.40;;;;;;5144807;27;19935;-45
2022/08/24 06:43:23;;;;;;;;;;;20.10;51.50;;;;;;5141697;27;19927;-47
2022/08/24 06:45:49;;;;;;;;;;;19.90;51.30;;;;;;5147563;27;19923;-46
2022/08/24 06:48:16;;;;;;;;;;;19.70;51.10;;;;;;5142210;27;20400;-46
2022/08/24 06:50:41;;;;;;;;;;;20.30;56.10;;;;;;5142389;27;19923;-46
2022/08/24 06:53:07;;;;;;;;;;;21.20;56.20;;;;;;5147792;27;20375;-46
2022/08/24 06:55:33;;;;;;;;;;;21.70;54.20;;;;;;5142079;27;19970;-45
2022/08/24 06:58:01;;;;;;;;;;;20.80;53.60;;;;;;5138038;27;20232;-45
2022/08/24 07:00:27;;;;;;;;;;;20.40;52.60;;;;;;5146571;27;20378;-45
2022/08/24 07:02:52;;;;;;;;;;;20.20;51.80;;;;;;5141763;27;19927;-45
2022/08/24 07:05:18;;;;;;;;;;;19.80;51.90;;;;;;5147309;27;19927;-53
2022/08/24 07:07:44;;;;;;;;;;;19.90;50.90;;;;;;5142377;27;20278;-48
2022/08/24 07:10:10;;;;;;;;;;;20.20;55.10;;;;;;5142060;27;20033;-47
2022/08/24 07:12:36;;;;;;;;;;;21.00;56.50;;;;;;5147475;27;19980;-45
2022/08/24 07:15:02;;;;;;;;;;;21.80;54.50;;;;;;5140075;27;20513;-46
2022/08/24 07:17:28;;;;;;;;;;;20.80;53.90;;;;;;5139125;27;19931;-46
2022/08/24 07:19:54;;;;;;;;;;;20.30;53.00;;;;;;5145375;27;19930;-46
2022/08/24 07:22:20;;;;;;;;;;;20.10;51.90;;;;;;5141885;27;19954;-46
2022/08/24 07:24:46;;;;;;;;;;;19.90;51.70;;;;;;5147664;27;20326;-50
2022/08/24 07:27:12;;;;;;;;;;;19.80;51.40;;;;;;5149068;27;19927;-46
2022/08/24 07:29:39;;;;;;;;;;;20.00;53.90;;;;;;5145890;27;20643;-52
2022/08/24 07:32:04;;;;;;;;;;;20.70;57.00;;;;;;5151318;27;20300;-48
2022/08/24 07:34:30;;;;;;;;;;;21.70;55.20;;;;;;5141855;27;19923;-46
2022/08/24 07:36:59;;;;;;;;;;;21.10;53.90;;;;;;5144122;27;19927;-45
2022/08/24 07:39:25;;;;;;;;;;;20.50;53.10;;;;;;5150855;27;20019;-48
2022/08/24 07:41:51;;;;;;;;;;;20.20;52.40;;;;;;5145374;27;19923;-46
2022/08/24 07:44:17;;;;;;;;;;;20.20;51.50;;;;;;5145465;27;19930;-48
2022/08/24 07:46:43;;;;;;;;;;;19.90;51.50;;;;;;5150914;27;20336;-46
2022/08/24 07:49:09;;;;;;;;;;;20.00;54.10;;;;;;5145614;27;19929;-45
2022/08/24 07:51:35;;;;;;;;;;;20.80;57.00;;;;;;5149573;27;20018;-48
2022/08/24 07:54:01;;;;;;;;;;;21.60;55.80;;;;;;5142067;27;19931;-46
2022/08/24 07:56:27;;;;;;;;;;;21.30;54.10;;;;;;5144726;27;20046;-46
2022/08/24 07:58:53;;;;;;;;;;;20.70;53.30;;;;;;5150349;27;20320;-46
2022/08/24 08:01:20;;;;;;;;;;;20.30;52.50;;;;;;5145062;27;19975;-47
2022/08/24 08:03:46;;;;;;;;;;;20.20;51.90;;;;;;5144914;27;19923;-46
2022/08/24 08:06:12;;;;;;;;;;;20.00;51.70;;;;;;5150423;27;20346;-49
2022/08/24 08:08:38;;;;;;;;;;;20.00;51.10;;;;;;5144868;27;19923;-45
2022/08/24 08:11:05;;;;;;;;;;;19.80;51.80;;;;;;5147412;27;19923;-52
2022/08/24 08:13:31;;;;;;;;;;;20.50;56.30;;;;;;5143331;27;20290;-46
2022/08/24 08:15:58;;;;;;;;;;;21.30;56.50;;;;;;5144736;27;19923;-46
2022/08/24 08:18:24;;;;;;;;;;;21.50;54.20;;;;;;5150217;27;20483;-44
2022/08/24 08:20:49;;;;;;;;;;;20.80;53.40;;;;;;5144855;27;19923;-46
2022/08/24 08:26:01;;;;;;;;;;;20.20;51.60;;;;;;5150051;27;19933;-47
2022/08/24 08:28:31;;;;;;;;;;;20.00;51.10;;;;;;5143126;27;19931;-48
2022/08/24 08:31:00;;;;;;;;;;;20.00;50.60;;;;;;5141808;27;19922;-46
2022/08/24 08:33:26;;;;;;;;;;;20.20;54.80;;;;;;5149525;27;20091;-45
2022/08/24 08:35:52;;;;;;;;;;;21.00;56.20;;;;;;5143625;27;20014;-45
2022/08/24 08:38:18;;;;;;;;;;;21.80;54.70;;;;;;5147259;27;20266;-57
2022/08/24 08:40:44;;;;;;;;;;;21.00;53.40;;;;;;5147425;27;19970;-45
2022/08/24 08:43:32;;;;;;;;;;;20.60;52.50;;;;;;5144465;27;19930;-46
2022/08/24 08:46:37;;;;;;;;;;;20.10;52.20;;;;;;5140545;27;19929;-57
2022/08/24 08:49:08;;;;;;;;;;;20.00;51.60;;;;;;5081254;28;19924;-46
2022/08/24 08:51:35;;;;;;;;;;;19.90;50.80;;;;;;5079309;28;19940;-45
2022/08/24 08:54:13;;;;;;;;;;;19.90;50.30;;;;;;5110259;27;20440;-46
2022/08/24 08:56:57;;;;;;;;;;;20.00;54.60;;;;;;5149784;27;19945;-46
2022/08/24 08:59:42;;;;;;;;;;;21.00;56.00;;;;;;5144144;27;19971;-47
2022/08/24 09:02:14;;;;;;;;;;;21.80;54.00;;;;;;5143953;27;19931;-45
2022/08/24 09:04:52;;;;;;;;;;;21.00;53.00;;;;;;5147872;27;19927;-46
2022/08/24 09:07:40;;;;;;;;;;;20.40;52.60;;;;;;5138630;27;20400;-47
2022/08/24 09:10:06;;;;;;;;;;;20.30;51.50;;;;;;5143067;27;19923;-49
2022/08/24 09:12:40;;;;;;;;;;;20.20;50.70;;;;;;5148919;27;19927;-45
2022/08/24 09:15:09;;;;;;;;;;;19.80;50.90;;;;;;5142169;27;19984;-44
2022/08/24 09:17:49;;;;;;;;;;;19.80;50.60;;;;;;5143603;27;20317;-46
2022/08/24 09:20:15;;;;;;;;;;;20.20;54.10;;;;;;5148995;27;19977;-47
2022/08/24 09:22:42;;;;;;;;;;;21.10;55.30;;;;;;5143394;27;19983;-48
2022/08/24 09:25:28;;;;;;;;;;;21.80;53.40;;;;;;5139072;27;20030;-52
2022/08/24 09:28:12;;;;;;;;;;;20.80;53.40;;;;;;5115213;27;19982;-46
2022/08/24 09:30:56;;;;;;;;;;;20.60;52.10;;;;;;5143266;27;20362;-45
2022/08/24 09:33:24;;;;;;;;;;;20.30;51.60;;;;;;5141826;27;20327;-44
2022/08/24 09:35:49;;;;;;;;;;;20.10;51.20;;;;;;5147615;27;19931;-45
2022/08/24 09:38:17;;;;;;;;;;;20.00;50.60;;;;;;5143114;27;20329;-46
2022/08/24 09:41:01;;;;;;;;;;;19.80;50.50;;;;;;5143547;27;20359;-47
2022/08/24 09:43:27;;;;;;;;;;;20.00;52.30;;;;;;5144033;27;19931;-47
2022/08/24 09:46:12;;;;;;;;;;;20.80;55.20;;;;;;5141128;27;20254;-46
2022/08/24 09:48:50;;;;;;;;;;;21.70;53.90;;;;;;5142766;27;20021;-44
2022/08/24 09:51:21;;;;;;;;;;;21.10;52.50;;;;;;5146816;27;20042;-44
2022/08/24 09:53:56;;;;;;;;;;;20.60;51.90;;;;;;5141671;27;19931;-46
2022/08/24 09:56:23;;;;;;;;;;;20.50;51.00;;;;;;5143044;27;19922;-44
2022/08/24 09:58:56;;;;;;;;;;;20.20;50.80;;;;;;5148259;27;19923;-45
2022/08/24 10:01:35;;;;;;;;;;;20.10;50.40;;;;;;5138203;27;19923;-54
2022/08/24 10:04:04;;;;;;;;;;;19.90;50.00;;;;;;5139830;27;19923;-45
2022/08/24 10:06:39;;;;;;;;;;;20.10;52.60;;;;;;5147929;27;19940;-45
2022/08/24 10:09:14;;;;;;;;;;;20.80;54.80;;;;;;5142558;27;20382;-48
2022/08/24 10:11:43;;;;;;;;;;;21.80;53.00;;;;;;5142595;27;19931;-46
2022/08/24 10:14:26;;;;;;;;;;;21.10;52.20;;;;;;5145515;27;20346;-48
2022/08/24 10:17:11;;;;;;;;;;;20.50;51.80;;;;;;5124241;27;20017;-47
2022/08/24 10:19:49;;;;;;;;;;;20.30;51.20;;;;;;5139577;27;19924;-47
2022/08/24 10:22:15;;;;;;;;;;;20.00;51.10;;;;;;5146171;27;20418;-46
2022/08/24 10:24:47;;;;;;;;;;;20.10;50.40;;;;;;5140694;27;19934;-47
2022/08/24 10:27:20;;;;;;;;;;;19.90;51.80;;;;;;5140924;27;19930;-46
2022/08/24 10:29:51;;;;;;;;;;;20.70;54.80;;;;;;5147861;27;19927;-46
2022/08/24 10:32:17;;;;;;;;;;;21.80;52.90;;;;;;5142310;27;20370;-46
2022/08/24 10:34:53;;;;;;;;;;;21.30;52.00;;;;;;5142008;27;19953;-46
2022/08/24 10:37:31;;;;;;;;;;;20.80;51.50;;;;;;5145564;27;19923;-47
2022/08/24 10:39:59;;;;;;;;;;;20.50;51.00;;;;;;5139444;27;20018;-47
2022/08/24 10:45:48;;;;;;;;;;;19.90;51.10;;;;;;5147736;27;20030;-44
2022/08/24 10:48:19;;;;;;;;;;;19.90;50.30;;;;;;5142123;27;19923;-46
2022/08/24 10:50:51;;;;;;;;;;;19.80;50.40;;;;;;5141987;27;20021;-46
2022/08/24 10:53:27;;;;;;;;;;;20.30;54.00;;;;;;5147666;27;19927;-46
2022/08/24 10:55:56;;;;;;;;;;;21.30;54.00;;;;;;5139675;27;19923;-49
2022/08/24 10:58:42;;;;;;;;;;;21.80;52.30;;;;;;5140362;27;19923;-45
2022/08/24 11:01:15;;;;;;;;;;;20.90;52.00;;;;;;5151289;27;19927;-45
2022/08/24 11:03:48;;;;;;;;;;;20.40;51.90;;;;;;5146076;27;20138;-47
2022/08/24 11:06:14;;;;;;;;;;;20.30;51.00;;;;;;5146073;27;19927;-46
2022/08/24 11:08:40;;;;;;;;;;;20.20;50.50;;;;;;5151540;27;19926;-45
2022/08/24 11:11:07;;;;;;;;;;;20.10;50.40;;;;;;5127676;27;19991;-48
2022/08/24 11:13:35;;;;;;;;;;;19.90;50.40;;;;;;5145358;27;20257;-46
2022/08/24 11:16:01;;;;;;;;;;;19.80;49.90;;;;;;5147408;27;19980;-45
2022/08/24 11:18:46;;;;;;;;;;;20.30;54.40;;;;;;5144991;27;20013;-46
2022/08/24 11:21:17;;;;;;;;;;;21.30;53.90;;;;;;5145753;27;20242;-45
2022/08/24 11:23:46;;;;;;;;;;;21.90;52.00;;;;;;5151117;27;19927;-47
2022/08/24 11:26:18;;;;;;;;;;;20.90;51.90;;;;;;5144495;27;19927;-46
2022/08/24 11:28:45;;;;;;;;;;;20.60;51.30;;;;;;5142776;27;19938;-52
2022/08/24 11:31:19;;;;;;;;;;;20.40;50.90;;;;;;5151167;27;19929;-44
2022/08/24 11:33:46;;;;;;;;;;;20.40;50.30;;;;;;5141249;27;19975;-52
2022/08/24 11:36:31;;;;;;;;;;;20.10;50.40;;;;;;5149899;27;20448;-44
2022/08/24 11:39:10;;;;;;;;;;;19.90;50.50;;;;;;5150966;27;19923;-45
2022/08/24 11:41:40;;;;;;;;;;;19.90;50.10;;;;;;5143364;27;19923;-45
2022/08/24 11:44:11;;;;;;;;;;;20.30;53.60;;;;;;5147082;27;20009;-54
2022/08/24 11:46:40;;;;;;;;;;;21.20;54.20;;;;;;5149312;27;20423;-45
2022/08/24 11:49:09;;;;;;;;;;;21.80;52.40;;;;;;5144145;27;19967;-49
2022/08/24 11:51:50;;;;;;;;;;;20.80;52.30;;;;;;5145926;27;20389;-53
2022/08/24 11:54:36;;;;;;;;;;;20.70;51.20;;;;;;5146875;27;19923;-46
2022/08/24 11:57:22;;;;;;;;;;;20.30;51.00;;;;;;5145165;27;19939;-45
2022/08/24 11:59:49;;;;;;;;;;;20.10;50.60;;;;;;5112863;27;19923;-46
2022/08/24 12:02:17;;;;;;;;;;;20.00;50.10;;;;;;5149704;27;20069;-48
2022/08/24 12:04:45;;;;;;;;;;;19.90;50.10;;;;;;5145292;27;20029;-49
2022/08/24 12:07:18;;;;;;;;;;;19.90;50.00;;;;;;5149326;27;19931;-47
2022/08/24 12:09:44;;;;;;;;;;;20.00;49.50;;;;;;5141852;27;19923;-47
2022/08/24 12:12:18;;;;;;;;;;;20.20;52.10;;;;;;5142522;27;20450;-46
2022/08/24 12:14:50;;;;;;;;;;;21.10;53.40;;;;;;5149947;27;19924;-46
2022/08/24 12:17:23;;;;;;;;;;;21.80;52.50;;;;;;5126240;27;19923;-44
2022/08/24 12:19:50;;;;;;;;;;;21.10;51.80;;;;;;5144785;27;19931;-47
2022/08/24 12:22:16;;;;;;;;;;;20.60;51.50;;;;;;5148915;27;19927;-45
2022/08/24 12:24:43;;;;;;;;;;;20.40;50.60;;;;;;5143630;27;20260;-46
2022/08/24 12:27:10;;;;;;;;;;;20.20;50.60;;;;;;5143489;27;19927;-47
2022/08/24 12:29:50;;;;;;;;;;;20.20;50.20;;;;;;5146579;27;19930;-46
2022/08/24 12:32:27;;;;;;;;;;;20.00;50.20;;;;;;5142876;27;20375;-44
2022/08/24 12:35:00;;;;;;;;;;;20.00;49.50;;;;;;5144441;27;19982;-45
2022/08/24 12:37:33;;;;;;;;;;;20.60;53.40;;;;;;5148692;27;19929;-46
2022/08/24 12:40:09;;;;;;;;;;;21.60;52.60;;;;;;5144460;27;19932;-47
2022/08/24 12:42:37;;;;;;;;;;;21.40;51.40;;;;;;5143596;27;19937;-45
2022/08/24 12:45:05;;;;;;;;;;;20.60;51.80;;;;;;5148531;27;19923;-46
2022/08/24 12:47:43;;;;;;;;;;;20.30;51.20;;;;;;5139778;27;19937;-47
2022/08/24 12:50:10;;;;;;;;;;;20.20;50.80;;;;;;5143400;27;20014;-47
2022/08/24 12:52:43;;;;;;;;;;;20.30;50.30;;;;;;5148270;27;20392;-46
2022/08/24 12:55:18;;;;;;;;;;;20.10;50.00;;;;;;5143050;27;20330;-45
2022/08/24 12:57:46;;;;;;;;;;;20.10;49.70;;;;;;5145004;27;20006;-54
2022/08/24 13:00:19;;;;;;;;;;;20.00;49.50;;;;;;5148356;27;19923;-45
2022/08/24 13:02:53;;;;;;;;;;;20.40;52.90;;;;;;5141917;27;21361;-47
2022/08/24 13:05:19;;;;;;;;;;;21.30;52.80;;;;;;5143416;27;19927;-54
2022/08/24 13:07:47;;;;;;;;;;;21.80;51.10;;;;;;5143784;27;19971;-46
2022/08/24 13:10:14;;;;;;;;;;;21.00;51.30;;;;;;5143492;27;19941;-46
2022/08/24 13:12:40;;;;;;;;;;;20.70;50.70;;;;;;5129430;27;19933;-49
2022/08/24 13:15:20;;;;;;;;;;;20.30;50.60;;;;;;5142333;27;19927;-46
2022/08/24 13:17:46;;;;;;;;;;;20.30;50.00;;;;;;5143802;27;19975;-45
2022/08/24 13:20:22;;;;;;;;;;;20.10;50.10;;;;;;5148118;27;20018;-46
2022/08/24 13:23:01;;;;;;;;;;;20.00;49.70;;;;;;5141213;27;19993;-47
2022/08/24 13:25:50;;;;;;;;;;;20.20;49.30;;;;;;5141239;27;19933;-46
2022/08/24 13:28:22;;;;;;;;;;;19.90;49.40;;;;;;5148578;27;20446;-48
2022/08/24 13:30:57;;;;;;;;;;;20.30;52.60;;;;;;5143453;27;19927;-46
2022/08/24 13:33:29;;;;;;;;;;;21.30;52.60;;;;;;5143559;27;20279;-45
2022/08/24 13:35:55;;;;;;;;;;;21.90;51.10;;;;;;5147702;27;19948;-46
2022/08/24 13:38:29;;;;;;;;;;;20.90;51.30;;;;;;5143344;27;19929;-47
2022/08/24 13:41:21;;;;;;;;;;;20.50;51.00;;;;;;5141357;27;19927;-47
2022/08/24 13:43:50;;;;;;;;;;;20.30;50.50;;;;;;5121470;27;19929;-46
2022/08/24 13:46:18;;;;;;;;;;;20.20;50.00;;;;;;5142454;27;19959;-46
2022/08/24 13:48:53;;;;;;;;;;;20.10;49.90;;;;;;5141425;27;19927;-44
2022/08/24 13:51:33;;;;;;;;;;;20.00;49.70;;;;;;5148527;27;19934;-46
2022/08/24 13:54:02;;;;;;;;;;;20.00;49.60;;;;;;5141730;27;19927;-47
2022/08/24 13:56:31;;;;;;;;;;;19.90;49.60;;;;;;5142917;27;20353;-47
2022/08/24 13:59:03;;;;;;;;;;;20.50;53.30;;;;;;5147753;27;19929;-49
2022/08/24 14:01:32;;;;;;;;;;;21.50;52.50;;;;;;5139286;27;19923;-47
2022/08/24 14:03:59;;;;;;;;;;;21.70;51.00;;;;;;5141943;27;20014;-46
2022/08/24 14:06:32;;;;;;;;;;;20.90;51.10;;;;;;5148098;27;19923;-45
2022/08/24 14:09:01;;;;;;;;;;;20.60;50.70;;;;;;5142662;27;20305;-48
2022/08/24 14:11:50;;;;;;;;;;;20.30;50.70;;;;;;5122039;27;19935;-45
2022/08/24 14:14:35;;;;;;;;;;;20.30;50.30;;;;;;5088795;27;19954;-45
2022/08/24 14:20:26;;;;;;;;;;;20.10;49.70;;;;;;5106549;27;20014;-45
2022/08/24 14:23:10;;;;;;;;;;;20.20;49.20;;;;;;5143448;27;19923;-54
2022/08/24 14:25:36;;;;;;;;;;;20.00;51.40;;;;;;5147715;27;19934;-46
2022/08/24 14:28:25;;;;;;;;;;;21.20;52.60;;;;;;5142456;27;19927;-47
2022/08/24 14:31:17;;;;;;;;;;;21.80;51.60;;;;;;5133857;27;20017;-45
2022/08/24 14:33:46;;;;;;;;;;;20.90;51.60;;;;;;5144288;27;19923;-45
2022/08/24 14:36:19;;;;;;;;;;;20.50;51.40;;;;;;5138314;27;19923;-46
2022/08/24 14:39:00;;;;;;;;;;;20.30;50.80;;;;;;5139405;27;20029;-45
2022/08/24 14:41:30;;;;;;;;;;;20.20;50.70;;;;;;5145660;27;20328;-45
2022/08/24 14:44:05;;;;;;;;;;;20.30;49.70;;;;;;5142006;27;19945;-48